Flight Track Log - Related Links

Times and Time Zones

All times are in EST time to prevent confusion due to time zone crossing. See the N716SM flight status page for this flight to view local times or setup timezone preferences in your user account.

Time Position Orientation Groundspeed Altitude Reporting Facility
EST Latitude Longitude Course Direction KTS MPH feet Rate Location/Type
Sun 10:43:26 AM 41.7000 -71.4517 221° Southwest 124 143 2,200  Level Boston Center
Sun 10:43:32 AM 41.6986 -71.4547 239° Southwest 136 157 2,400 2,866 Climbing Boston Center
Sun 10:44:33 AM 41.6831 -71.5094 249° West 152 175 5,400 2,948 Climbing Boston Center
Sun 10:45:28 AM 41.6700 -71.5528 248° West 140 161 8,100 2,379 Climbing Boston Center
Sun 10:46:29 AM 41.6439 -71.6000 234° Southwest 156 180 10,000 1,200 Climbing Boston Center
Sun 10:47:28 AM 41.6161 -71.6594 238° Southwest 191 220 10,500 246 Climbing Boston Center
Sun 10:48:00 AM 41.3341 -71.2891 166° South  Level FlightAware Approximate
Sun 10:48:31 AM 41.5894 -71.7311 244° Southwest 210 242 10,500  Level Boston Center
Sun 10:49:31 AM 41.5614 -71.8047 243° Southwest 220 253 10,500  Level Boston Center
Sun 10:50:32 AM 41.5311 -71.8856 243° Southwest 224 258 10,500  Level Boston Center
Sun 10:51:34 AM 41.5031 -71.9600 243° Southwest 224 258 10,500  Level Boston Center
Sun 10:52:34 AM 41.4761 -72.0336 244° Southwest 224 258 10,500  Level Boston Center
Sun 10:53:33 AM 41.4469 -72.1078 242° Southwest 224 258 10,500  Level Boston Center
Sun 10:54:34 AM 41.4128 -72.1817 238° Southwest 232 267 10,500  Level Boston Center
Sun 10:55:36 AM 41.3794 -72.2547 239° Southwest 232 267 10,500  Level Boston Center
Sun 10:56:37 AM 41.3514 -72.3308 244° Southwest 230 265 10,500  Level Boston Center
Sun 10:57:37 AM 41.3231 -72.4139 246° West 228 262 10,500  Level Boston Center
Sun 10:58:38 AM 41.2964 -72.4900 245° Southwest 228 262 10,500 50 Level Boston Center
Sun 10:59:38 AM 41.2694 -72.5611 243° Southwest 228 262 10,600 50 Climbing Boston Center
Sun 11:00:39 AM 41.2414 -72.6258 240° Southwest 227 261 10,600  Level Boston Center
Sun 11:01:40 AM 41.2008 -72.7133 238° Southwest 228 262 10,600  Level Boston Center
Sun 11:02:42 AM 41.1692 -72.7878 241° Southwest 230 265 10,600  Level Boston Center
Sun 11:03:43 AM 41.1403 -72.8642 243° Southwest 232 267 10,600  Level Boston Center
Sun 11:04:13 AM 41.1167 -72.9000 229° Southwest 227 261 10,600  Level New York TRACON
Sun 11:05:13 AM 41.1000 -72.9833 255° West 220 253 10,600  Level New York TRACON
Sun 11:06:13 AM 41.0667 -73.0500 236° Southwest 216 249 10,600  Level New York TRACON
Sun 11:07:13 AM 41.0500 -73.1167 252° West 221 254 10,600  Level New York TRACON
Sun 11:08:07 AM 41.0167 -73.2000 242° Southwest 225 259 10,600  Level New York TRACON
Sun 11:09:07 AM 40.9833 -73.2667 236° Southwest 230 265 10,600  Level New York TRACON
Sun 11:10:01 AM 40.9500 -73.3333 237° Southwest 234 269 10,600  Level New York TRACON
Sun 11:11:07 AM 40.9167 -73.4000 237° Southwest 227 261 10,600 -50 Level New York TRACON
Sun 11:12:01 AM 40.9000 -73.4667 252° West 220 253 10,500  Descending New York TRACON
Sun 11:13:01 AM 40.8667 -73.5500 242° Southwest 216 249 10,600 50 Climbing New York TRACON
Sun 11:14:01 AM 40.8333 -73.6167 237° Southwest 216 249 10,600  Level New York TRACON
Sun 11:14:55 AM 40.8167 -73.6833 252° West 216 249 10,600  Level New York TRACON
Sun 11:15:55 AM 40.7833 -73.7500 237° Southwest 215 247 10,600  Level New York TRACON
Sun 11:16:55 AM 40.7500 -73.8167 237° Southwest 219 252 10,600  Level New York TRACON
Sun 11:17:55 AM 40.7333 -73.8833 252° West 217 250 10,600  Level New York TRACON
Sun 11:18:55 AM 40.7000 -73.9500 237° Southwest 221 254 10,600  Level New York TRACON
Sun 11:19:49 AM 40.6667 -74.0167 237° Southwest 223 257 10,600  Level New York TRACON
Sun 11:20:49 AM 40.6333 -74.0833 237° Southwest 213 245 10,600  Level New York TRACON
Sun 11:21:55 AM 40.6000 -74.1500 237° Southwest 215 247 10,600  Level New York TRACON
Sun 11:22:49 AM 40.5833 -74.2167 252° West 219 252 10,600  Level New York TRACON
Sun 11:23:49 AM 40.5500 -74.2833 237° Southwest 217 250 10,600  Level New York TRACON
Sun 11:24:43 AM 40.5167 -74.3500 237° Southwest 217 250 10,600  Level New York TRACON
Sun 11:25:43 AM 40.4833 -74.4167 237° Southwest 218 251 10,600  Level New York TRACON
Sun 11:26:43 AM 40.4500 -74.4833 237° Southwest 219 252 10,600  Level New York TRACON
Sun 11:27:43 AM 40.4333 -74.5500 252° West 213 245 10,600 -368 Level New York TRACON
Sun 11:28:37 AM 40.4000 -74.6167 237° Southwest 223 257 9,900 -789 Descending New York TRACON
Sun 11:29:37 AM 40.3667 -74.6833 237° Southwest 210 242 9,100 -750 Descending New York TRACON
Sun 11:30:37 AM 40.3500 -74.7500 252° West 207 238 8,400 -1,050 Descending New York TRACON
Sun 11:31:37 AM 40.3333 -74.8333 255° West 218 251 7,000 -1,150 Descending New York TRACON
Sun 11:32:37 AM 40.3000 -74.9000 237° Southwest 218 251 6,100 -810 Descending New York TRACON
Sun 11:33:43 AM 40.2667 -74.9667 237° Southwest 212 244 5,300 -754 Descending New York TRACON
Sun 11:35:48 AM 40.2167 -75.1000 244° Southwest 192 221 3,700 -746 Descending Philadelphia TRACON
Sun 11:36:48 AM 40.1833 -75.1667 237° Southwest 176 203 3,000 -700 Descending Philadelphia TRACON
Sun 11:38:00 AM 40.1466 -75.2456 237° Southwest  Level Estimated
Sun 11:45:00 AM 40.1333 -75.2500 237° Southwest  Level FlightAware Approximate
Sun 11:46:00 AM 40.1376 -75.2651 237° Southwest  Level Estimated
Sun 11:47:00 AM 40.1376 -75.2651 237° Southwest  Level Estimated

Login

Don't have an account? Register now (free) for customized features, flight alerts, and more!